Time;durP1;ratioP1;P1;durP2;ratioP2;P2;SDS_P1;SDS_P2;PMS_P1;PMS_P2;Temp;Humidity;BMP_temperature;BMP_pressure;BME280_temperature;BME280_humidity;BME280_pressure;Samples;Min_cycle;Max_cycle;Signal;HPM_P1;HPM_P2
2023/02/23 00:01:10;;;;;;;9.10;6.68;;;;;;;6.48;55.40;94670.44;5090499;28;20108;-78
2023/02/23 00:03:35;;;;;;;11.10;6.70;;;;;;;6.46;55.72;94667.13;5090756;28;20031;-78
2023/02/23 00:06:02;;;;;;;9.45;6.65;;;;;;;6.35;55.53;94648.97;5090771;28;20040;-78
2023/02/23 00:08:27;;;;;;;9.27;6.63;;;;;;;6.25;55.75;94647.03;5073592;28;20421;-78
2023/02/23 00:10:57;;;;;;;11.70;7.63;;;;;;;6.38;55.74;94664.25;5072951;28;20040;-78
2023/02/23 00:13:22;;;;;;;9.80;6.65;;;;;;;6.30;55.82;94671.72;5074103;28;20016;-78
2023/02/23 00:15:48;;;;;;;10.02;6.68;;;;;;;6.37;55.90;94673.75;5090394;28;20093;-78
2023/02/23 00:18:13;;;;;;;10.55;6.60;;;;;;;6.23;56.43;94676.44;5089962;28;20039;-78
2023/02/23 00:20:44;;;;;;;9.15;6.20;;;;;;;6.26;56.27;94674.47;5091600;28;20486;-78
2023/02/23 00:23:09;;;;;;;10.32;6.55;;;;;;;6.15;56.68;94661.47;5090225;28;20032;-78
2023/02/23 00:25:37;;;;;;;10.60;6.72;;;;;;;6.17;56.55;94675.09;5090156;28;20039;-78
2023/02/23 00:28:06;;;;;;;10.45;7.05;;;;;;;5.95;57.00;94678.31;5073451;28;20024;-78
2023/02/23 00:30:33;;;;;;;10.25;6.97;;;;;;;5.67;58.24;94671.53;5073018;28;20444;-78
2023/02/23 00:32:58;;;;;;;9.65;6.68;;;;;;;5.92;57.64;94672.50;5073622;28;20028;-78
2023/02/23 00:35:24;;;;;;;10.48;6.53;;;;;;;6.03;57.27;94673.47;5073183;28;20391;-78
2023/02/23 00:37:49;;;;;;;8.43;6.13;;;;;;;6.02;57.27;94679.56;5091513;28;20028;-78
2023/02/23 00:40:16;;;;;;;9.50;6.53;;;;;;;6.18;56.54;94681.09;5072591;28;20028;-78
2023/02/23 00:42:45;;;;;;;12.73;7.10;;;;;;;6.03;56.66;94670.06;5073439;28;20036;-78
2023/02/23 00:45:11;;;;;;;11.65;7.68;;;;;;;6.01;57.08;94666.75;5089993;28;20081;-78
2023/02/23 00:47:38;;;;;;;9.52;7.10;;;;;;;5.97;57.00;94671.28;5073190;28;20444;-78
2023/02/23 00:50:04;;;;;;;11.20;7.32;;;;;;;5.73;57.20;94637.63;5056452;28;20557;-78
2023/02/23 00:52:30;;;;;;;11.55;6.70;;;;;;;5.91;57.14;94673.44;5073169;28;20047;-78
2023/02/23 00:54:55;;;;;;;9.13;7.00;;;;;;;5.93;56.83;94664.69;5073331;28;20462;-78
2023/02/23 00:57:21;;;;;;;12.70;7.15;;;;;;;5.98;56.80;94669.53;5091558;28;20532;-78
2023/02/23 00:59:47;;;;;;;12.93;7.68;;;;;;;5.73;57.12;94647.13;5089718;28;20055;-78
2023/02/23 01:02:12;;;;;;;10.43;6.88;;;;;;;5.72;57.50;94671.25;5089976;28;20562;-78
2023/02/23 01:04:38;;;;;;;11.98;7.35;;;;;;;5.59;57.50;94643.69;5089742;28;20498;-78
2023/02/23 01:07:05;;;;;;;10.13;7.30;;;;;;;5.70;57.69;94670.50;5072254;28;20513;-78
2023/02/23 01:09:30;;;;;;;11.18;7.75;;;;;;;5.55;57.94;94656.91;5073182;28;20028;-78
2023/02/23 01:11:56;;;;;;;11.00;7.22;;;;;;;5.62;58.09;94671.00;5072784;28;20105;-78
2023/02/23 01:14:22;;;;;;;11.75;7.60;;;;;;;5.50;57.89;94658.94;5055922;28;20191;-78
2023/02/23 01:16:47;;;;;;;11.88;7.95;;;;;;;5.57;58.27;94673.06;5056167;28;20040;-78
2023/02/23 01:19:13;;;;;;;12.43;8.18;;;;;;;5.38;58.54;94652.84;5072916;28;20020;-78
2023/02/23 01:21:40;;;;;;;11.10;7.65;;;;;;;5.11;58.89;94642.56;5089525;28;20536;-78
2023/02/23 01:24:06;;;;;;;12.40;7.75;;;;;;;5.28;58.93;94654.34;5090801;28;20039;-78
2023/02/23 01:26:35;;;;;;;16.10;8.27;;;;;;;5.30;59.12;94673.13;5089132;28;20028;-78
2023/02/23 01:29:14;;;;;;;11.75;7.53;;;;;;;5.16;59.51;94658.56;5073450;28;20414;-78
2023/02/23 01:31:42;;;;;;;10.88;7.00;;;;;;;5.19;59.18;94647.22;5076957;28;20477;-78
2023/02/23 01:34:10;;;;;;;12.02;7.32;;;;;;;5.05;59.61;94645.53;5093479;28;20119;-78
2023/02/23 01:36:40;;;;;;;11.57;7.55;;;;;;;4.96;59.64;94635.81;5075538;28;20036;-78
2023/02/23 01:39:07;;;;;;;10.18;7.10;;;;;;;5.10;59.95;94664.09;5056967;28;20029;-78
2023/02/23 01:41:33;;;;;;;10.63;7.63;;;;;;;5.16;59.66;94663.69;5089477;28;20460;-78
2023/02/23 01:44:19;;;;;;;11.23;7.55;;;;;;;5.19;59.71;94668.66;5072814;28;20025;-78
2023/02/23 01:46:45;;;;;;;13.23;7.88;;;;;;;5.08;59.56;94660.78;5118491;27;20040;-78
2023/02/23 01:49:14;;;;;;;10.13;7.57;;;;;;;5.18;59.55;94669.56;5075793;28;20050;-78
2023/02/23 01:51:42;;;;;;;11.35;7.30;;;;;;;5.14;59.78;94660.38;5075773;28;20429;-78
2023/02/23 01:54:10;;;;;;;13.68;7.03;;;;;;;5.15;59.57;94664.59;5076209;28;20036;-78
2023/02/23 01:56:42;;;;;;;11.73;7.75;;;;;;;5.09;59.85;94670.16;5094064;28;20032;-78
2023/02/23 01:59:07;;;;;;;11.05;7.70;;;;;;;5.07;59.68;94661.69;5093936;28;20043;-78
2023/02/23 02:01:39;;;;;;;11.35;7.20;;;;;;;5.17;59.46;94661.94;5076313;28;20036;-78
2023/02/23 02:04:04;;;;;;;12.75;7.72;;;;;;;5.12;59.51;94651.94;5076231;28;20056;-78
2023/02/23 02:06:30;;;;;;;10.85;7.28;;;;;;;5.14;59.49;94662.97;5092116;28;20067;-79
2023/02/23 02:08:58;;;;;;;9.73;7.22;;;;;;;5.14;59.41;94660.38;5093878;28;20028;-78
2023/02/23 02:11:29;;;;;;;11.88;8.00;;;;;;;5.13;59.15;94654.41;5075852;28;20036;-78
2023/02/23 02:14:01;;;;;;;13.52;8.10;;;;;;;5.18;59.33;94661.84;5092698;28;20132;-78
2023/02/23 02:17:01;;;;;;;11.65;7.75;;;;;;;5.15;59.50;94654.31;5075786;28;20036;-78
2023/02/23 02:20:25;;;;;;;13.50;8.20;;;;;;;5.14;59.45;94655.25;5092381;28;20028;-78
2023/02/23 02:22:53;;;;;;;10.95;7.40;;;;;;;5.10;59.30;94651.22;5077637;28;20044;-78
2023/02/23 02:25:30;;;;;;;13.15;7.43;;;;;;;5.15;59.23;94652.56;5093230;28;20032;-78
2023/02/23 02:28:29;;;;;;;10.85;7.22;;;;;;;5.16;59.45;94655.97;5093491;28;20036;-78
2023/02/23 02:31:03;;;;;;;11.57;7.60;;;;;;;4.98;59.50;94645.09;5092528;28;20100;-78
2023/02/23 02:33:44;;;;;;;11.68;7.72;;;;;;;5.09;59.28;94659.84;5092143;28;20031;-78
2023/02/23 02:36:42;;;;;;;11.05;7.43;;;;;;;5.09;59.33;94652.94;5091559;28;20494;-78
2023/02/23 02:39:22;;;;;;;11.88;7.57;;;;;;;4.95;59.82;94657.31;5077177;28;20024;-78
2023/02/23 02:42:28;;;;;;;13.48;8.50;;;;;;;4.85;60.33;94655.34;5092175;28;20036;-78
2023/02/23 02:44:59;;;;;;;11.50;6.63;;;;;;;4.84;60.01;94661.41;5080173;28;20518;-78
2023/02/23 02:47:57;;;;;;;11.27;7.70;;;;;;;4.80;60.29;94649.66;5092113;28;20035;-78
2023/02/23 02:50:40;;;;;;;13.02;7.50;;;;;;;4.72;60.66;94649.31;5055533;28;20040;-77
2023/02/23 02:53:14;;;;;;;11.50;7.68;;;;;;;4.72;60.39;94643.34;5093808;28;20043;-78
2023/02/23 02:55:42;;;;;;;10.95;7.35;;;;;;;4.73;60.29;94653.53;5092969;28;20107;-78
2023/02/23 02:58:07;;;;;;;11.85;7.47;;;;;;;4.77;60.35;94647.28;5075188;28;20395;-78
2023/02/23 04:18:06;;;;;;;10.35;7.15;;;;;;;4.09;62.50;94678.03;5073707;28;20028;-78
2023/02/23 04:20:32;;;;;;;11.13;7.22;;;;;;;4.09;62.49;94688.31;5073333;28;20163;-78
2023/02/23 04:22:57;;;;;;;9.23;7.07;;;;;;;3.97;63.10;94677.84;5073218;28;20051;-77
2023/02/23 04:25:22;;;;;;;12.05;7.03;;;;;;;4.09;62.48;94675.47;5072791;28;20020;-78
2023/02/23 04:27:51;;;;;;;12.88;7.55;;;;;;;4.18;62.29;94690.31;5072804;28;20417;-78
2023/02/23 04:30:17;;;;;;;11.15;7.85;;;;;;;4.08;62.81;94689.25;5073160;28;20081;-78
2023/02/23 04:32:44;;;;;;;10.70;7.60;;;;;;;4.07;62.84;94688.41;5090194;28;20036;-78
2023/02/23 04:35:11;;;;;;;11.07;7.53;;;;;;;4.09;62.88;94681.41;5090966;28;20129;-78
2023/02/23 04:37:36;;;;;;;9.68;6.88;;;;;;;4.15;62.44;94690.50;5089830;28;20398;-78
2023/02/23 04:40:02;;;;;;;10.68;7.38;;;;;;;4.23;62.36;94698.59;5084778;28;20035;-78
2023/02/23 04:42:28;;;;;;;9.88;7.03;;;;;;;4.10;62.53;94677.13;5087206;28;20044;-78
2023/02/23 04:44:54;;;;;;;12.82;7.43;;;;;;;3.98;63.03;94689.78;5069431;28;20514;-78
2023/02/23 04:47:19;;;;;;;12.25;7.25;;;;;;;3.85;62.99;94683.72;5087151;28;20078;-78
2023/02/23 04:49:45;;;;;;;10.27;6.65;;;;;;;3.90;63.06;94675.72;5068984;28;20039;-78
2023/02/23 04:52:10;;;;;;;12.10;6.65;;;;;;;3.86;63.65;94684.53;5087156;28;20082;-78
2023/02/23 04:54:39;;;;;;;10.40;6.85;;;;;;;3.65;63.66;94666.03;5071593;28;20059;-78
2023/02/23 04:57:04;;;;;;;10.85;7.07;;;;;;;3.86;63.67;94675.06;5099948;28;20032;-78
2023/02/23 04:59:30;;;;;;;10.27;7.53;;;;;;;3.91;63.67;94679.94;5086892;28;20066;-78
2023/02/23 05:01:56;;;;;;;11.27;7.35;;;;;;;3.85;64.18;94686.28;5069020;28;20040;-77
2023/02/23 05:04:21;;;;;;;12.23;8.15;;;;;;;3.88;64.56;94691.22;5086239;28;20025;-80
2023/02/23 05:06:47;;;;;;;12.88;8.20;;;;;;;3.91;64.25;94697.94;5089380;28;20492;-76
2023/02/23 05:09:12;;;;;;;14.77;9.70;;;;;;;3.93;64.48;94702.09;5089486;28;20478;-76
2023/02/23 05:11:38;;;;;;;12.43;7.32;;;;;;;3.78;64.42;94690.94;5090637;28;20478;-78
2023/02/23 05:14:03;;;;;;;8.95;6.32;;;;;;;3.90;63.40;94686.00;5089503;28;20570;-78
2023/02/23 05:16:29;;;;;;;11.00;6.78;;;;;;;3.85;63.71;94686.28;5089296;28;20036;-78
2023/02/23 05:18:55;;;;;;;10.02;6.47;;;;;;;3.97;63.45;94698.41;5091285;28;20032;-79
2023/02/23 05:21:20;;;;;;;9.70;6.85;;;;;;;4.03;63.47;94698.03;5072800;28;20381;-78
2023/02/23 05:23:47;;;;;;;9.75;6.57;;;;;;;4.05;63.08;94689.41;5089117;28;20036;-79
2023/02/23 05:26:13;;;;;;;8.52;6.50;;;;;;;4.19;62.75;94702.28;5087772;28;20036;-78
2023/02/23 05:28:39;;;;;;;9.13;6.15;;;;;;;4.34;62.59;94711.63;5056187;28;20111;-78
2023/02/23 05:31:05;;;;;;;7.90;5.70;;;;;;;4.21;61.98;94695.31;5089947;28;20035;-78
2023/02/23 05:33:31;;;;;;;14.52;10.30;;;;;;;4.01;63.33;94696.47;5072113;28;20020;-78
2023/02/23 05:35:57;;;;;;;8.80;6.90;;;;;;;3.91;63.26;94696.19;5089399;28;20482;-78
2023/02/23 05:38:22;;;;;;;12.27;6.97;;;;;;;3.97;63.03;94711.25;5072218;28;20031;-78
2023/02/23 05:40:48;;;;;;;14.13;8.77;;;;;;;3.93;64.03;94716.69;5089389;28;20097;-78
2023/02/23 05:43:13;;;;;;;9.52;6.55;;;;;;;3.83;63.87;94718.13;5072234;28;20039;-78
2023/02/23 05:45:42;;;;;;;11.70;6.45;;;;;;;3.92;63.75;94723.53;5072223;28;20082;-78
2023/02/23 05:48:08;;;;;;;9.32;6.15;;;;;;;3.76;63.95;94713.34;5056152;28;20039;-78
2023/02/23 05:50:34;;;;;;;9.15;5.72;;;;;;;3.77;63.81;94722.69;5072555;28;20036;-78
2023/02/23 05:52:59;;;;;;;8.70;6.35;;;;;;;3.91;63.50;94715.94;5072478;28;20048;-78
2023/02/23 05:55:25;;;;;;;8.82;6.18;;;;;;;3.99;63.76;94732.56;5055073;28;20037;-78
2023/02/23 05:57:50;;;;;;;8.20;6.00;;;;;;;3.86;63.48;94728.22;5087308;28;20032;-78
2023/02/23 06:00:16;;;;;;;10.60;6.53;;;;;;;3.92;63.79;94741.53;5071398;28;20039;-79
2023/02/23 06:02:42;;;;;;;11.98;7.88;;;;;;;4.01;64.12;94746.16;5105546;28;20035;-78
2023/02/23 06:05:09;;;;;;;10.00;7.05;;;;;;;4.05;63.47;94733.13;5054865;28;20131;-78
2023/02/23 06:07:34;;;;;;;9.48;6.85;;;;;;;4.07;63.76;94733.84;5070527;28;20035;-78
2023/02/23 06:09:59;;;;;;;11.35;6.57;;;;;;;4.20;63.19;94734.78;5088172;28;20024;-78
2023/02/23 06:12:25;;;;;;;10.80;6.28;;;;;;;4.31;62.64;94752.97;5071914;28;20055;-78
2023/02/23 06:14:51;;;;;;;8.93;6.03;;;;;;;4.27;62.18;94733.50;5070663;28;20039;-79
2023/02/23 06:17:16;;;;;;;10.32;6.30;;;;;;;4.36;61.90;94748.38;5070895;28;20421;-78
2023/02/23 06:19:42;;;;;;;11.43;5.90;;;;;;;4.38;62.38;94750.88;5055000;28;20397;-78
2023/02/23 06:22:08;;;;;;;10.07;6.63;;;;;;;4.45;61.60;94749.59;5088541;28;20039;-78
2023/02/23 06:24:33;;;;;;;9.60;6.40;;;;;;;4.27;62.76;94756.66;5087893;28;20059;-78
2023/02/23 06:26:59;;;;;;;10.38;6.72;;;;;;;4.34;62.66;94755.34;5088106;28;20473;-78
2023/02/23 06:29:24;;;;;;;10.85;6.28;;;;;;;4.41;62.55;94753.28;5071418;28;20035;-79
2023/02/23 06:31:50;;;;;;;11.85;7.70;;;;;;;4.42;62.60;94766.03;5087825;28;20036;-78
2023/02/23 06:34:15;;;;;;;14.10;9.60;;;;;;;4.36;63.17;94763.00;5086886;28;20024;-78
2023/02/23 06:36:44;;;;;;;15.43;10.20;;;;;;;4.33;63.18;94761.44;5087023;28;20027;-78
2023/02/23 06:39:10;;;;;;;15.95;9.70;;;;;;;4.29;62.81;94754.84;5087497;28;20093;-78
2023/02/23 06:41:35;;;;;;;14.10;8.80;;;;;;;4.44;62.81;94759.06;5087481;28;20032;-78
2023/02/23 06:44:01;;;;;;;17.48;9.10;;;;;;;4.66;61.91;94747.47;5071387;28;20108;-78
2023/02/23 06:46:26;;;;;;;16.10;10.77;;;;;;;5.29;60.55;94759.03;5053064;28;20036;-78
2023/02/23 06:48:55;;;;;;;28.55;15.68;;;;;;;7.36;55.70;94753.78;5087981;28;20372;-78
2023/02/23 06:51:21;;;;;;;20.30;12.57;;;;;;;9.29;50.17;94758.44;5071404;28;20074;-78
2023/02/23 06:53:47;;;;;;;20.55;11.50;;;;;;;11.15;45.48;94747.44;5070103;28;20036;-78
2023/02/23 06:56:12;;;;;;;16.98;11.30;;;;;;;12.85;41.78;94752.25;5082252;28;20831;-79
2023/02/23 06:58:39;;;;;;;15.05;11.05;;;;;;;14.49;38.28;94751.38;5070412;28;20252;-78
2023/02/23 07:01:04;;;;;;;26.80;12.20;;;;;;;15.72;35.35;94745.00;5070091;28;20124;-79
2023/02/23 07:03:30;;;;;;;17.88;12.25;;;;;;;16.65;33.38;94744.72;5070156;28;20058;-79
2023/02/23 07:05:55;;;;;;;16.98;11.85;;;;;;;17.58;31.56;94748.59;5068768;28;20486;-79
2023/02/23 07:08:21;;;;;;;16.73;11.40;;;;;;;18.41;30.37;94740.03;5085342;28;20430;-79
2023/02/23 07:10:46;;;;;;;19.52;11.90;;;;;;;19.00;29.39;94739.38;5088129;28;20032;-79
2023/02/23 07:13:12;;;;;;;25.20;17.60;;;;;;;19.34;29.10;94738.00;5070602;28;20069;-79
2023/02/23 07:15:37;;;;;;;19.05;14.10;;;;;;;18.72;29.18;94745.22;5091702;28;20035;-79
2023/02/23 07:18:03;;;;;;;15.80;12.32;;;;;;;17.96;30.35;94717.19;5087215;28;20020;-78
2023/02/23 07:20:30;;;;;;;16.10;12.70;;;;;;;17.71;31.22;94755.91;5072430;28;20032;-78
2023/02/23 07:22:55;;;;;;;19.15;12.85;;;;;;;18.28;30.49;94748.53;5058553;28;20044;-78
2023/02/23 07:25:21;;;;;;;17.38;12.18;;;;;;;18.46;30.09;94755.28;5052507;28;20034;-78
2023/02/23 07:27:46;;;;;;;16.77;11.25;;;;;;;17.70;31.61;94749.03;5079198;28;20035;-78
2023/02/23 07:30:12;;;;;;;15.98;11.05;;;;;;;17.61;31.84;94743.00;5071585;28;20036;-78
2023/02/23 07:32:38;;;;;;;14.80;10.75;;;;;;;17.29;32.47;94726.38;5088561;28;20050;-78
2023/02/23 07:35:04;;;;;;;13.48;9.82;;;;;;;17.69;31.76;94731.63;5090069;28;20505;-78
2023/02/23 07:37:29;;;;;;;17.63;10.60;;;;;;;18.08;31.30;94740.28;5072205;28;20024;-78
2023/02/23 07:39:55;;;;;;;16.92;10.68;;;;;;;17.49;31.89;94733.84;5051460;28;20028;-78
2023/02/23 07:42:20;;;;;;;16.33;11.10;;;;;;;18.29;31.30;94750.16;5072146;28;20479;-78
2023/02/23 07:44:45;;;;;;;18.38;11.20;;;;;;;19.27;29.51;94737.09;5070858;28;20036;-78
2023/02/23 07:47:11;;;;;;;15.85;10.77;;;;;;;20.33;28.02;94740.97;5088640;28;20036;-78
2023/02/23 07:49:36;;;;;;;15.93;11.00;;;;;;;21.22;26.53;94727.25;5068812;28;20032;-78
2023/02/23 07:52:02;;;;;;;14.25;10.68;;;;;;;21.00;26.64;94739.69;5084895;28;20546;-78
2023/02/23 07:54:27;;;;;;;15.80;10.93;;;;;;;21.77;25.52;94736.06;5073727;28;20122;-78
2023/02/23 07:56:53;;;;;;;15.85;10.60;;;;;;;22.19;25.20;94728.09;5073762;28;20036;-78
2023/02/23 07:59:18;;;;;;;13.75;10.95;;;;;;;22.73;24.38;94724.44;5091734;28;20032;-79
2023/02/23 08:01:44;;;;;;;13.07;10.25;;;;;;;23.17;23.74;94707.91;5073850;28;20064;-78
2023/02/23 08:04:09;;;;;;;11.18;9.60;;;;;;;23.93;22.54;94717.06;5072062;28;20047;-78
2023/02/23 08:06:35;;;;;;;13.82;9.52;;;;;;;24.52;21.66;94717.75;5072592;28;20053;-79
2023/02/23 08:09:01;;;;;;;12.02;8.82;;;;;;;24.61;21.42;94719.09;5089340;28;20417;-76
2023/02/23 08:11:27;;;;;;;11.15;8.77;;;;;;;25.04;20.91;94709.53;5107098;28;20047;-76
2023/02/23 08:13:55;;;;;;;9.10;7.78;;;;;;;25.47;20.20;94720.19;5109666;27;20032;-78
2023/02/23 08:16:21;;;;;;;8.88;7.80;;;;;;;25.54;19.93;94720.09;5104714;28;20039;-77
2023/02/23 08:18:46;;;;;;;11.07;7.80;;;;;;;25.79;19.64;94717.34;5073481;28;20116;-77
2023/02/23 08:21:11;;;;;;;11.38;8.50;;;;;;;25.96;19.42;94701.59;5089893;28;20035;-77
2023/02/23 08:23:37;;;;;;;8.40;7.40;;;;;;;25.78;19.20;94691.78;5072694;28;20028;-78
2023/02/23 08:26:03;;;;;;;10.98;8.15;;;;;;;25.49;19.44;94701.34;5072797;28;20031;-78
2023/02/23 08:28:28;;;;;;;8.57;7.60;;;;;;;24.94;20.31;94715.38;5089178;28;20036;-77
2023/02/23 08:30:54;;;;;;;9.55;8.35;;;;;;;22.71;22.61;94711.44;5090452;28;20024;-76
2023/02/23 08:33:20;;;;;;;13.30;9.02;;;;;;;21.09;24.79;94706.88;5090737;28;20028;-76
2023/02/23 08:35:45;;;;;;;15.57;10.50;;;;;;;20.45;26.06;94714.91;5090340;28;20032;-77
2023/02/23 08:38:10;;;;;;;14.00;9.77;;;;;;;19.76;27.17;94718.09;5086584;28;20405;-77
2023/02/23 08:40:36;;;;;;;15.25;10.02;;;;;;;18.80;28.21;94717.19;5090124;28;20089;-76
2023/02/23 08:43:02;;;;;;;15.00;9.98;;;;;;;17.89;30.32;94721.53;5089070;28;20028;-77
2023/02/23 08:45:30;;;;;;;11.95;9.70;;;;;;;17.05;31.68;94697.59;5072776;28;20606;-76
2023/02/23 08:47:56;;;;;;;13.38;9.60;;;;;;;16.89;32.31;94720.28;5105627;28;20023;-76
2023/02/23 08:50:21;;;;;;;12.30;9.95;;;;;;;16.21;33.46;94718.84;5076316;28;20034;-76
2023/02/23 08:52:47;;;;;;;15.80;10.07;;;;;;;15.75;34.79;94718.50;5090011;28;20062;-76
2023/02/23 08:55:12;;;;;;;12.77;10.23;;;;;;;15.32;35.69;94722.94;5089201;28;20036;-76
2023/02/23 08:57:38;;;;;;;13.52;9.90;;;;;;;14.73;36.71;94725.41;5109836;27;20035;-76
2023/02/23 09:00:12;;;;;;;11.75;9.57;;;;;;;14.70;36.85;94727.53;5085424;28;20056;-77
2023/02/23 09:02:39;;;;;;;14.40;9.85;;;;;;;14.10;38.05;94720.38;5079553;28;20032;-76
2023/02/23 09:05:05;;;;;;;14.07;10.10;;;;;;;13.64;39.41;94722.22;5089280;28;20070;-76
2023/02/23 09:07:30;;;;;;;14.82;10.40;;;;;;;13.33;40.39;94727.78;5088659;28;20112;-76
2023/02/23 09:09:56;;;;;;;16.52;11.20;;;;;;;13.38;39.98;94722.94;5088666;28;20028;-76
2023/02/23 09:12:21;;;;;;;15.93;10.38;;;;;;;13.36;40.03;94719.66;5055005;28;20024;-76
2023/02/23 09:14:47;;;;;;;13.32;9.52;;;;;;;13.46;39.92;94718.78;5072530;28;20068;-76
2023/02/23 09:17:12;;;;;;;17.38;9.20;;;;;;;13.20;40.26;94703.78;5055280;28;20036;-76
2023/02/23 09:19:38;;;;;;;13.18;9.35;;;;;;;13.40;40.15;94713.19;5088863;28;20055;-76
2023/02/23 09:22:03;;;;;;;16.25;9.70;;;;;;;13.51;39.86;94701.72;5084949;28;20037;-76
2023/02/23 09:24:29;;;;;;;15.88;9.88;;;;;;;13.61;40.00;94706.88;5083937;28;20149;-78
2023/02/23 09:26:54;;;;;;;13.77;8.80;;;;;;;13.54;39.59;94711.03;5068732;28;20032;-76
2023/02/23 09:29:20;;;;;;;13.82;9.02;;;;;;;13.52;39.82;94718.19;5084387;28;20025;-76
2023/02/23 09:31:45;;;;;;;16.48;9.02;;;;;;;13.35;40.44;94710.19;5055086;28;20490;-75
2023/02/23 09:34:11;;;;;;;15.30;10.20;;;;;;;13.19;40.58;94717.81;5091358;28;20469;-76
2023/02/23 09:36:37;;;;;;;13.45;8.93;;;;;;;13.22;40.86;94714.91;5088926;28;20024;-76
2023/02/23 09:39:02;;;;;;;15.00;9.20;;;;;;;12.93;41.03;94710.66;5071490;28;20028;-77
2023/02/23 09:41:53;;;;;;;14.98;8.95;;;;;;;13.02;41.12;94716.78;5088826;28;20098;-76
2023/02/23 09:44:33;;;;;;;15.88;8.80;;;;;;;13.01;41.68;94711.69;5086973;28;20067;-76
2023/02/23 09:47:04;;;;;;;16.90;9.45;;;;;;;13.19;40.87;94708.19;5088694;28;20040;-76
2023/02/23 09:49:33;;;;;;;13.85;8.48;;;;;;;13.33;40.60;94712.13;5088313;28;20081;-76
2023/02/23 09:51:59;;;;;;;13.00;7.97;;;;;;;13.29;40.72;94713.41;5092474;28;20040;-76
2023/02/23 09:54:29;;;;;;;13.65;8.18;;;;;;;13.45;40.63;94706.69;5075495;28;20343;-76
2023/02/23 09:56:57;;;;;;;12.60;8.48;;;;;;;13.55;40.42;94694.41;5075646;28;20100;-76
2023/02/23 09:59:23;;;;;;;14.73;8.65;;;;;;;13.82;39.79;94704.78;5092500;28;20059;-76
2023/02/23 10:02:22;;;;;;;15.18;8.38;;;;;;;13.79;39.82;94709.47;5075991;28;20039;-76
2023/02/23 10:04:58;;;;;;;15.88;8.18;;;;;;;14.03;40.03;94699.25;5075583;28;20031;-76
2023/02/23 10:07:44;;;;;;;12.20;8.20;;;;;;;14.03;39.64;94688.81;5074105;28;20076;-76
2023/02/23 10:10:31;;;;;;;12.50;7.45;;;;;;;14.28;39.78;94708.09;5077831;28;20062;-76
2023/02/23 10:13:02;;;;;;;10.80;7.75;;;;;;;14.13;39.83;94701.78;5093615;28;20034;-76
2023/02/23 10:15:46;;;;;;;;;;;;;;;14.11;39.85;94697.69;5075960;28;20041;-76
2023/02/23 10:18:30;;;;;;;11.35;7.40;;;;;;;14.11;39.71;94689.84;5088923;28;19912;-76
2023/02/23 10:21:28;;;;;;;11.07;7.72;;;;;;;14.10;40.01;94691.66;5091247;28;20090;-76
2023/02/23 10:24:03;;;;;;;10.60;7.40;;;;;;;14.30;40.34;94676.59;5084700;28;20036;-76
2023/02/23 10:26:36;;;;;;;13.88;8.27;;;;;;;14.16;40.49;94677.16;5058676;28;20040;-76
2023/02/23 10:29:02;;;;;;;12.15;9.02;;;;;;;14.13;40.86;94677.47;5073747;28;20035;-76
2023/02/23 10:31:42;;;;;;;12.30;8.95;;;;;;;14.20;40.67;94676.69;5073297;28;20228;-76
2023/02/23 10:34:15;;;;;;;14.88;7.72;;;;;;;14.29;40.30;94649.66;5075079;28;20028;-76
2023/02/23 10:36:57;;;;;;;11.38;8.52;;;;;;;14.31;40.29;94671.22;5075251;28;20107;-76
2023/02/23 10:39:22;;;;;;;12.32;7.97;;;;;;;14.41;39.86;94645.00;5076220;28;20156;-76
2023/02/23 10:41:48;;;;;;;12.00;7.75;;;;;;;14.57;39.74;94646.91;5091985;28;20040;-76
2023/02/23 10:44:18;;;;;;;12.82;7.90;;;;;;;14.58;39.55;94652.97;5074915;28;20478;-76
2023/02/23 10:46:43;;;;;;;12.13;8.13;;;;;;;14.63;39.65;94651.53;5075241;28;20206;-76
2023/02/23 10:49:14;;;;;;;11.20;7.80;;;;;;;14.79;39.20;94644.72;5090235;28;20537;-76
2023/02/23 10:51:39;;;;;;;11.10;7.90;;;;;;;14.61;39.63;94636.97;5075384;28;20032;-76
2023/02/23 10:54:36;;;;;;;16.13;7.38;;;;;;;14.93;39.28;94655.41;5074730;28;20032;-76
2023/02/23 10:57:02;;;;;;;10.40;7.15;;;;;;;14.87;39.01;94642.94;5074701;28;20515;-76
2023/02/23 10:59:28;;;;;;;8.95;7.65;;;;;;;14.89;38.95;94629.72;5058041;28;20051;-76
2023/02/23 11:01:53;;;;;;;11.93;6.68;;;;;;;14.96;39.21;94636.78;5073527;28;20036;-76
2023/02/23 11:04:29;;;;;;;12.23;6.95;;;;;;;14.98;39.41;94636.63;5057870;28;20534;-76
2023/02/23 11:07:14;;;;;;;10.30;7.15;;;;;;;14.77;39.56;94636.22;5091033;28;20024;-76
2023/02/23 11:09:40;;;;;;;13.77;6.88;;;;;;;14.85;39.48;94634.47;5091266;28;20418;-76
2023/02/23 11:12:27;;;;;;;10.77;7.20;;;;;;;15.01;38.94;94631.06;5074405;28;20036;-76
2023/02/23 11:14:54;;;;;;;9.27;6.60;;;;;;;15.23;38.80;94623.63;5091227;28;20020;-76
2023/02/23 11:17:33;;;;;;;9.70;6.78;;;;;;;15.29;38.70;94622.97;5074436;28;20028;-76
2023/02/23 11:20:01;;;;;;;13.63;7.57;;;;;;;15.31;37.61;94623.63;5091033;28;20434;-76
2023/02/23 11:22:29;;;;;;;10.35;7.15;;;;;;;15.10;38.44;94605.75;5074666;28;20062;-76
2023/02/23 11:24:55;;;;;;;16.08;7.82;;;;;;;15.11;38.55;94617.88;5057341;28;20458;-76
2023/02/23 11:27:23;;;;;;;11.50;7.20;;;;;;;15.23;38.32;94605.31;5090835;28;20036;-76
2023/02/23 11:29:49;;;;;;;9.32;7.03;;;;;;;15.38;38.42;94603.72;5057510;28;20510;-76
2023/02/23 11:32:26;;;;;;;11.52;6.85;;;;;;;15.46;38.12;94601.09;5091014;28;20561;-76
2023/02/23 11:35:11;;;;;;;12.93;7.45;;;;;;;15.42;38.45;94600.59;5074458;28;20112;-76
2023/02/23 11:37:37;;;;;;;10.35;7.70;;;;;;;15.48;38.12;94603.53;5090861;28;20040;-76
2023/02/23 11:40:18;;;;;;;12.10;7.28;;;;;;;15.61;38.21;94596.03;5073876;28;20080;-76
2023/02/23 11:42:55;;;;;;;14.50;8.15;;;;;;;15.49;37.95;94610.41;5073815;28;20446;-76
2023/02/23 11:45:22;;;;;;;10.73;7.00;;;;;;;15.52;38.15;94597.03;5073909;28;20046;-76
2023/02/23 11:47:48;;;;;;;11.30;7.05;;;;;;;15.63;37.59;94591.47;5073912;28;20486;-76
2023/02/23 11:50:28;;;;;;;9.50;6.45;;;;;;;15.87;37.74;94590.66;5073819;28;20028;-76
2023/02/23 11:52:59;;;;;;;9.00;6.70;;;;;;;16.02;37.47;94591.63;5073724;28;20096;-75
2023/02/23 11:55:24;;;;;;;10.23;7.05;;;;;;;16.09;37.09;94582.13;5090400;28;20024;-76
2023/02/23 11:57:51;;;;;;;10.02;7.20;;;;;;;15.94;37.46;94590.81;5090108;28;20040;-76
2023/02/23 12:00:22;;;;;;;14.90;7.45;;;;;;;15.97;36.88;94593.13;5056930;28;20031;-76
2023/02/23 12:02:54;;;;;;;10.80;7.60;;;;;;;15.85;37.69;94593.44;5090012;28;20036;-76
2023/02/23 12:05:29;;;;;;;9.90;6.95;;;;;;;15.82;36.99;94585.09;5090293;28;20459;-76
2023/02/23 12:08:04;;;;;;;10.48;7.13;;;;;;;15.90;37.15;94587.69;5090201;28;20036;-76
2023/02/23 12:10:34;;;;;;;10.13;7.13;;;;;;;15.96;36.87;94587.03;5073229;28;20031;-76
2023/02/23 12:13:06;;;;;;;10.10;6.78;;;;;;;16.02;37.13;94585.59;5089896;28;20417;-76
2023/02/23 12:15:52;;;;;;;10.80;6.93;;;;;;;16.10;36.42;94588.16;5089993;28;20032;-76
2023/02/23 12:18:45;;;;;;;10.68;6.82;;;;;;;15.98;36.63;94579.84;5090061;28;20036;-76
2023/02/23 12:21:14;;;;;;;10.95;6.53;;;;;;;16.21;36.68;94577.34;5087659;28;20043;-76
2023/02/23 12:23:39;;;;;;;10.10;6.97;;;;;;;16.24;37.01;94573.56;5091053;28;20036;-76
2023/02/23 12:26:10;;;;;;;9.88;6.95;;;;;;;16.35;36.73;94575.81;5056386;28;20042;-76
2023/02/23 12:28:37;;;;;;;;;;;;;;;16.30;36.69;94572.91;5057144;28;20070;-76
2023/02/23 12:31:42;;;;;;;9.18;6.68;;;;;;;16.32;36.38;94563.06;5089874;28;19959;-76
2023/02/23 12:34:20;;;;;;;10.90;7.03;;;;;;;16.43;35.85;94565.31;5065376;28;20032;-76
2023/02/23 12:36:54;;;;;;;12.13;7.25;;;;;;;16.41;36.01;94569.94;5073051;28;20130;-76
2023/02/23 12:39:38;;;;;;;9.43;7.13;;;;;;;16.21;36.54;94563.41;5074023;28;20028;-76
2023/02/23 12:42:21;;;;;;;11.50;7.47;;;;;;;16.37;35.96;94571.25;5074805;28;20044;-76
2023/02/23 12:44:56;;;;;;;11.25;7.40;;;;;;;16.29;36.12;94572.06;5056763;28;20085;-76
2023/02/23 12:47:40;;;;;;;11.52;6.57;;;;;;;16.36;36.29;94572.25;5089845;28;20036;-76
2023/02/23 12:50:23;;;;;;;12.07;6.75;;;;;;;16.38;35.34;94559.78;5089612;28;20034;-76
2023/02/23 12:52:56;;;;;;;9.40;5.75;;;;;;;16.41;35.52;94564.69;5056876;28;20082;-76
2023/02/23 12:55:54;;;;;;;8.63;6.00;;;;;;;16.54;35.27;94570.19;5057091;28;20414;-76
2023/02/23 12:58:27;;;;;;;8.15;5.95;;;;;;;16.47;34.68;94550.09;5072604;28;20062;-76